createdAt,value
2023-06-17T00:03:00.928Z,21.56
2023-06-17T00:06:03.390Z,21.75
2023-06-17T00:09:05.491Z,21.81
2023-06-17T00:12:08.843Z,21.63
2023-06-17T00:15:11.976Z,21.63
2023-06-17T00:18:14.529Z,21.63
2023-06-17T00:21:16.694Z,21.63
2023-06-17T00:24:18.969Z,21.63
2023-06-17T00:27:21.172Z,21.75
2023-06-17T00:30:23.352Z,21.81
2023-06-17T00:33:25.636Z,21.56
2023-06-17T00:36:27.985Z,21.56
2023-06-17T00:39:30.097Z,21.56
2023-06-17T00:42:32.423Z,21.31
2023-06-17T00:45:40.280Z,21.25
2023-06-17T00:48:42.849Z,21.25
2023-06-17T00:51:51.128Z,21.31
2023-06-17T00:55:02.960Z,21.44
2023-06-17T00:58:05.090Z,21.38
2023-06-17T01:01:07.229Z,21.25
2023-06-17T01:04:09.839Z,21.31
2023-06-17T01:07:31.313Z,21.25
2023-06-17T01:10:44.590Z,21.25
2023-06-17T01:13:47.727Z,21.13
2023-06-17T01:16:55.833Z,21.19
2023-06-17T01:19:59.980Z,21.19
2023-06-17T01:23:04.262Z,21.00
2023-06-17T01:26:08.284Z,21.13
2023-06-17T01:29:11.136Z,21.19
2023-06-17T01:32:13.495Z,21.25
2023-06-17T01:35:17.701Z,21.31
2023-06-17T01:38:26.378Z,20.94
2023-06-17T01:41:34.573Z,20.75
2023-06-17T01:44:37.241Z,20.81
2023-06-17T01:47:40.135Z,20.69
2023-06-17T01:50:42.376Z,20.69
2023-06-17T01:53:44.954Z,20.69
2023-06-17T01:56:47.379Z,20.75
2023-06-17T01:59:49.653Z,20.75
2023-06-17T02:02:51.829Z,20.56
2023-06-17T02:05:53.968Z,20.63
2023-06-17T02:08:56.905Z,20.63
2023-06-17T02:11:59.111Z,20.63
2023-06-17T02:15:01.292Z,20.56
2023-06-17T02:18:03.489Z,20.31
2023-06-17T02:21:06.221Z,20.50
2023-06-17T02:24:08.351Z,20.38
2023-06-17T02:27:10.434Z,20.50
2023-06-17T02:30:13.235Z,20.50
2023-06-17T02:33:19.088Z,20.63
2023-06-17T02:36:21.224Z,20.69
2023-06-17T02:39:23.649Z,20.50
2023-06-17T02:42:25.700Z,20.31
2023-06-17T02:45:27.874Z,20.50
2023-06-17T02:48:30.004Z,20.44
2023-06-17T02:51:33.198Z,20.69
2023-06-17T02:54:35.263Z,20.63
2023-06-17T02:57:37.374Z,20.38
2023-06-17T03:00:39.504Z,20.38
2023-06-17T03:03:42.745Z,20.50
2023-06-17T03:06:45.584Z,20.38
2023-06-17T03:09:47.701Z,20.38
2023-06-17T03:12:49.968Z,20.56
2023-06-17T03:15:52.053Z,20.56
2023-06-17T03:18:54.349Z,20.44
2023-06-17T03:21:57.201Z,20.25
2023-06-17T03:24:59.383Z,20.25
2023-06-17T03:28:04.269Z,19.94
2023-06-17T03:31:06.885Z,20.25
2023-06-17T03:34:08.971Z,20.25
2023-06-17T03:37:11.553Z,20.13
2023-06-17T03:40:14.837Z,20.19
2023-06-17T03:43:17.006Z,20.31
2023-06-17T03:46:19.665Z,20.13
2023-06-17T03:49:21.802Z,20.06
2023-06-17T03:52:23.903Z,20.13
2023-06-17T03:55:26.403Z,20.25
2023-06-17T03:58:29.398Z,20.25
2023-06-17T04:01:31.686Z,20.19
2023-06-17T04:04:35.764Z,20.13
2023-06-17T04:07:39.616Z,20.06
2023-06-17T04:10:41.718Z,19.94
2023-06-17T04:13:44.062Z,20.00
2023-06-17T04:16:46.140Z,19.94
2023-06-17T04:19:48.980Z,19.94
2023-06-17T04:22:51.045Z,19.75
2023-06-17T04:25:53.559Z,19.94
2023-06-17T04:28:55.611Z,19.94
2023-06-17T04:31:58.147Z,19.94
2023-06-17T04:35:04.623Z,20.00
2023-06-17T04:38:07.046Z,20.00
2023-06-17T04:41:09.699Z,20.13
2023-06-17T04:44:12.110Z,20.19
2023-06-17T04:47:14.611Z,20.06
2023-06-17T04:50:17.898Z,20.00
2023-06-17T04:53:20.211Z,20.06
2023-06-17T04:56:22.252Z,20.00
2023-06-17T04:59:25.324Z,20.25
2023-06-17T05:02:27.469Z,20.19
2023-06-17T05:05:29.601Z,20.19
2023-06-17T05:08:31.704Z,20.44
2023-06-17T05:11:33.833Z,20.19
2023-06-17T05:14:36.128Z,20.25
2023-06-17T05:17:38.528Z,20.25
2023-06-17T05:20:40.669Z,20.31
2023-06-17T05:23:42.778Z,20.44
2023-06-17T05:26:44.924Z,20.44
2023-06-17T05:29:47.079Z,19.94
2023-06-17T05:32:49.319Z,19.88
2023-06-17T05:35:51.535Z,19.69
2023-06-17T05:38:53.623Z,19.81
2023-06-17T05:41:55.767Z,20.00
2023-06-17T05:44:57.898Z,19.44
2023-06-17T05:48:00.047Z,19.56
2023-06-17T05:51:02.251Z,19.81
2023-06-17T05:54:04.562Z,19.56
2023-06-17T05:57:06.762Z,19.63
2023-06-17T06:00:09.502Z,19.50
2023-06-17T06:03:11.657Z,20.00
2023-06-17T06:06:13.773Z,20.06
2023-06-17T06:09:16.054Z,19.81
2023-06-17T06:12:18.179Z,19.44
2023-06-17T06:15:20.247Z,19.13
2023-06-17T06:18:22.395Z,19.81
2023-06-17T06:21:24.513Z,19.81
2023-06-17T06:24:26.974Z,19.88
2023-06-17T06:27:29.295Z,20.00
2023-06-17T06:30:31.679Z,19.56
2023-06-17T06:33:36.303Z,20.06
2023-06-17T06:36:38.414Z,19.88
2023-06-17T06:39:40.499Z,19.94
2023-06-17T06:42:42.801Z,19.94
2023-06-17T06:45:44.931Z,20.00
2023-06-17T06:48:47.068Z,19.69
2023-06-17T06:51:49.470Z,19.88
2023-06-17T06:54:52.001Z,20.19
2023-06-17T06:57:54.177Z,20.06
2023-06-17T07:00:56.299Z,20.06
2023-06-17T07:03:58.530Z,20.50
2023-06-17T07:07:00.745Z,20.56
2023-06-17T07:10:02.948Z,20.50
2023-06-17T07:13:05.070Z,20.44
2023-06-17T07:16:07.163Z,20.63
2023-06-17T07:19:09.266Z,20.81
2023-06-17T07:22:11.495Z,20.94
2023-06-17T07:25:13.635Z,20.81
2023-06-17T07:28:15.862Z,21.63
2023-06-17T07:31:18.104Z,22.00
2023-06-17T07:34:20.487Z,22.19
2023-06-17T07:37:22.688Z,22.31
2023-06-17T07:40:24.915Z,22.38
2023-06-17T07:43:27.366Z,22.44
2023-06-17T07:46:29.686Z,22.50
2023-06-17T07:49:33.171Z,22.63
2023-06-17T07:52:36.269Z,22.69
2023-06-17T07:55:40.165Z,22.13
2023-06-17T07:58:44.327Z,22.50
2023-06-17T08:01:46.443Z,22.69
2023-06-17T08:04:49.317Z,22.69
2023-06-17T08:07:51.495Z,22.06
2023-06-17T08:10:53.594Z,22.50
2023-06-17T08:13:55.791Z,22.13
2023-06-17T08:16:58.153Z,22.50
2023-06-17T08:20:01.056Z,22.50
2023-06-17T08:23:03.197Z,22.81
2023-06-17T08:26:06.282Z,22.75
2023-06-17T08:29:08.466Z,22.56
2023-06-17T08:32:10.557Z,22.94
2023-06-17T08:35:12.654Z,22.94
2023-06-17T08:38:14.809Z,22.88
2023-06-17T08:41:16.931Z,23.13
2023-06-17T08:44:22.336Z,23.13
2023-06-17T08:47:24.680Z,23.00
2023-06-17T08:50:28.931Z,23.13
2023-06-17T08:53:31.488Z,23.19
2023-06-17T08:56:34.610Z,23.25
2023-06-17T08:59:36.753Z,23.25
2023-06-17T09:02:39.479Z,23.31
2023-06-17T09:05:41.599Z,23.50
2023-06-17T09:08:44.065Z,23.50
2023-06-17T09:11:52.619Z,23.50
2023-06-17T09:14:58.237Z,23.44
2023-06-17T09:18:00.648Z,23.56
2023-06-17T09:21:03.912Z,23.44
2023-06-17T09:24:07.794Z,23.63
2023-06-17T09:27:20.998Z,23.63
2023-06-17T09:30:24.364Z,23.75
2023-06-17T09:33:28.194Z,23.81
2023-06-17T09:36:30.902Z,23.88
2023-06-17T09:39:34.338Z,23.81
2023-06-17T09:42:36.808Z,23.75
2023-06-17T09:45:40.751Z,23.88
2023-06-17T09:48:44.174Z,23.88
2023-06-17T09:51:48.296Z,23.81
2023-06-17T09:54:51.986Z,23.81
2023-06-17T09:57:55.431Z,23.81
2023-06-17T10:01:02.073Z,23.94
2023-06-17T10:04:04.600Z,24.06
2023-06-17T10:07:07.888Z,24.13
2023-06-17T10:10:12.125Z,24.13
2023-06-17T10:13:15.789Z,24.06
2023-06-17T10:16:20.050Z,24.06
2023-06-17T10:19:28.018Z,24.13
2023-06-17T10:22:30.286Z,24.19
2023-06-17T10:25:33.846Z,24.19
2023-06-17T10:28:46.782Z,24.19
2023-06-17T10:31:48.919Z,24.13
2023-06-17T10:35:10.878Z,24.13
2023-06-17T10:38:29.230Z,24.06
2023-06-17T10:41:40.460Z,23.94
2023-06-17T10:44:43.779Z,24.06
2023-06-17T10:47:46.166Z,24.00
2023-06-17T10:51:01.571Z,24.31
2023-06-17T10:54:04.897Z,24.50
2023-06-17T10:57:07.415Z,24.25
2023-06-17T11:00:13.515Z,24.13
2023-06-17T11:03:17.651Z,24.13
2023-06-17T11:06:19.797Z,24.06
2023-06-17T11:09:26.727Z,24.13
2023-06-17T11:12:28.880Z,24.06
2023-06-17T11:15:30.948Z,24.13
2023-06-17T11:18:40.021Z,24.06
2023-06-17T11:21:42.671Z,24.19
2023-06-17T11:24:46.510Z,24.19
2023-06-17T11:27:51.791Z,24.44
2023-06-17T11:30:57.211Z,24.06
2023-06-17T11:34:03.154Z,24.19
2023-06-17T11:37:10.830Z,24.00
2023-06-17T11:40:13.678Z,23.94
2023-06-17T11:43:17.220Z,24.06
2023-06-17T11:46:26.320Z,24.25
2023-06-17T11:49:28.867Z,24.31
2023-06-17T11:52:30.978Z,24.25
2023-06-17T11:55:34.739Z,24.38
2023-06-17T11:58:39.417Z,24.44
2023-06-17T12:01:42.977Z,24.63
2023-06-17T12:04:46.621Z,24.44
2023-06-17T12:07:48.852Z,24.44
2023-06-17T12:10:51.103Z,24.44
2023-06-17T12:13:53.488Z,24.38
2023-06-17T12:16:55.616Z,24.44
2023-06-17T12:20:01.799Z,24.50
2023-06-17T12:23:05.022Z,24.75
2023-06-17T12:26:07.146Z,24.63
2023-06-17T12:29:24.616Z,24.69
2023-06-17T12:32:29.687Z,24.56
2023-06-17T12:35:32.401Z,24.56
2023-06-17T12:38:35.098Z,24.94
2023-06-17T12:41:37.280Z,25.06
2023-06-17T12:44:39.369Z,24.88
2023-06-17T12:47:42.204Z,24.81
2023-06-17T12:50:44.732Z,24.88
2023-06-17T12:53:46.840Z,24.81
2023-06-17T12:56:48.930Z,24.81
2023-06-17T12:59:51.057Z,24.56
2023-06-17T13:02:53.165Z,24.88
2023-06-17T13:05:55.437Z,24.88
2023-06-17T13:08:57.558Z,24.75
2023-06-17T13:11:59.609Z,24.69
2023-06-17T13:15:04.531Z,24.50
2023-06-17T13:18:08.998Z,24.75
2023-06-17T13:21:11.123Z,24.88
2023-06-17T13:24:14.132Z,24.75
2023-06-17T13:27:19.765Z,24.69
2023-06-17T13:30:22.086Z,25.06
2023-06-17T13:33:24.411Z,24.94
2023-06-17T13:36:26.825Z,24.94
2023-06-17T13:39:28.917Z,25.06
2023-06-17T13:42:33.724Z,25.13
2023-06-17T13:45:35.849Z,25.25
2023-06-17T13:48:37.996Z,25.31
2023-06-17T13:51:40.347Z,25.31
2023-06-17T13:54:42.657Z,25.44
2023-06-17T13:57:44.803Z,25.38
2023-06-17T14:00:46.885Z,25.25
2023-06-17T14:03:49.372Z,25.31
2023-06-17T14:06:51.596Z,25.50
2023-06-17T14:09:53.697Z,25.63
2023-06-17T14:12:55.862Z,25.56
2023-06-17T14:15:58.094Z,25.69
2023-06-17T14:19:01.551Z,25.56
2023-06-17T14:22:07.932Z,25.38
2023-06-17T14:25:11.353Z,25.38
2023-06-17T14:28:13.621Z,25.50
2023-06-17T14:31:15.699Z,25.19
2023-06-17T14:34:17.930Z,25.38
2023-06-17T14:37:20.096Z,25.50
2023-06-17T14:40:22.627Z,25.44
2023-06-17T14:43:24.832Z,25.63
2023-06-17T14:46:26.961Z,25.63
2023-06-17T14:49:29.193Z,25.69
2023-06-17T14:52:31.344Z,25.69
2023-06-17T14:55:33.946Z,25.69
2023-06-17T14:58:36.003Z,25.38
2023-06-17T15:01:39.077Z,25.31
2023-06-17T15:04:41.261Z,25.25
2023-06-17T15:07:43.395Z,25.31
2023-06-17T15:10:45.559Z,25.50
2023-06-17T15:13:47.636Z,25.31
2023-06-17T15:16:50.335Z,25.19
2023-06-17T15:19:52.558Z,25.06
2023-06-17T15:22:54.662Z,25.31
2023-06-17T15:25:56.832Z,25.56
2023-06-17T15:28:59.068Z,25.44
2023-06-17T15:32:01.136Z,25.44
2023-06-17T15:35:03.317Z,25.50
2023-06-17T15:38:05.433Z,25.44
2023-06-17T15:41:07.588Z,25.44
2023-06-17T15:44:10.438Z,25.31
2023-06-17T15:47:12.583Z,25.38
2023-06-17T15:50:14.889Z,25.19
2023-06-17T15:53:16.973Z,25.19
2023-06-17T15:56:19.074Z,25.25
2023-06-17T15:59:21.460Z,25.25
2023-06-17T16:02:23.606Z,25.25
2023-06-17T16:05:25.785Z,25.25
2023-06-17T16:08:27.978Z,25.31
2023-06-17T16:11:30.050Z,25.38
2023-06-17T16:14:33.773Z,25.38
2023-06-17T16:17:36.435Z,25.38
2023-06-17T16:20:38.748Z,25.44
2023-06-17T16:23:40.845Z,25.25
2023-06-17T16:26:42.950Z,25.19
2023-06-17T16:29:45.148Z,25.31
2023-06-17T16:32:47.680Z,25.19
2023-06-17T16:35:49.835Z,25.25
2023-06-17T16:38:51.897Z,25.31
2023-06-17T16:41:54.053Z,25.31
2023-06-17T16:44:56.165Z,25.44
2023-06-17T16:47:58.327Z,25.38
2023-06-17T16:51:06.700Z,25.25
2023-06-17T16:54:09.007Z,25.31
2023-06-17T16:57:11.705Z,25.31
2023-06-17T17:00:14.095Z,25.31
2023-06-17T17:03:16.436Z,25.19
2023-06-17T17:06:19.024Z,25.13
2023-06-17T17:09:21.987Z,25.00
2023-06-17T17:12:24.124Z,24.94
2023-06-17T17:15:26.497Z,24.94
2023-06-17T17:18:28.929Z,24.94
2023-06-17T17:21:31.595Z,24.94
2023-06-17T17:24:33.766Z,24.88
2023-06-17T17:27:36.186Z,24.88
2023-06-17T17:30:38.635Z,24.94
2023-06-17T17:33:42.068Z,24.88
2023-06-17T17:36:44.559Z,24.88
2023-06-17T17:39:46.688Z,24.81
2023-06-17T17:42:49.624Z,24.81
2023-06-17T17:45:51.998Z,24.81
2023-06-17T17:48:54.455Z,24.81
2023-06-17T17:51:56.551Z,24.81
2023-06-17T17:55:02.800Z,24.75
2023-06-17T17:58:05.950Z,24.69
2023-06-17T18:01:08.333Z,24.88
2023-06-17T18:04:10.452Z,24.81
2023-06-17T18:07:12.614Z,24.88
2023-06-17T18:10:14.770Z,24.88
2023-06-17T18:13:16.866Z,24.81
2023-06-17T18:16:19.021Z,24.75
2023-06-17T18:19:21.403Z,24.81
2023-06-17T18:22:23.485Z,24.69
2023-06-17T18:25:25.739Z,24.69
2023-06-17T18:28:27.809Z,24.69
2023-06-17T18:31:30.123Z,24.63
2023-06-17T18:34:32.253Z,24.63
2023-06-17T18:37:34.432Z,24.63
2023-06-17T18:40:36.562Z,24.69
2023-06-17T18:43:38.717Z,24.69
2023-06-17T18:46:41.172Z,24.69
2023-06-17T18:49:43.621Z,24.63
2023-06-17T18:52:46.556Z,24.56
2023-06-17T18:55:48.761Z,24.56
2023-06-17T18:58:51.116Z,24.56
2023-06-17T19:01:53.278Z,24.56
2023-06-17T19:04:55.711Z,24.56
2023-06-17T19:07:57.905Z,24.56
2023-06-17T19:11:00.066Z,24.56
2023-06-17T19:14:02.388Z,24.56
2023-06-17T19:17:04.829Z,24.50
2023-06-17T19:20:10.776Z,24.50
2023-06-17T19:23:12.896Z,24.50
2023-06-17T19:26:15.015Z,24.44
2023-06-17T19:29:17.191Z,24.44
2023-06-17T19:32:19.328Z,24.44
2023-06-17T19:35:21.613Z,24.44
2023-06-17T19:38:23.666Z,24.38
2023-06-17T19:41:27.083Z,24.44
2023-06-17T19:44:33.580Z,24.38
2023-06-17T19:47:35.796Z,24.38
2023-06-17T19:50:38.711Z,24.38
2023-06-17T19:53:40.825Z,24.38
2023-06-17T19:56:43.674Z,24.31
2023-06-17T19:59:45.808Z,24.31
2023-06-17T20:02:48.310Z,24.31
2023-06-17T20:05:50.778Z,24.31
2023-06-17T20:08:52.908Z,24.31
2023-06-17T20:11:55.099Z,24.25
2023-06-17T20:14:57.317Z,24.25
2023-06-17T20:17:59.468Z,24.25
2023-06-17T20:21:01.700Z,24.25
2023-06-17T20:24:04.191Z,24.19
2023-06-17T20:27:06.694Z,24.19
2023-06-17T20:30:09.540Z,24.13
2023-06-17T20:33:11.650Z,24.13
2023-06-17T20:36:14.070Z,24.13
2023-06-17T20:39:16.117Z,24.13
2023-06-17T20:42:18.566Z,24.06
2023-06-17T20:45:20.763Z,24.13
2023-06-17T20:48:22.905Z,24.06
2023-06-17T20:51:25.421Z,24.06
2023-06-17T20:54:28.022Z,24.06
2023-06-17T20:57:30.355Z,24.06
2023-06-17T21:00:32.734Z,24.06
2023-06-17T21:03:34.895Z,24.00
2023-06-17T21:06:37.548Z,24.00
2023-06-17T21:09:39.959Z,23.94
2023-06-17T21:12:42.287Z,24.00
2023-06-17T21:15:44.414Z,23.94
2023-06-17T21:18:46.611Z,23.94
2023-06-17T21:21:48.978Z,23.63
2023-06-17T21:24:51.145Z,23.50
2023-06-17T21:27:53.353Z,23.38
2023-06-17T21:30:55.691Z,23.31
2023-06-17T21:33:57.830Z,23.31
2023-06-17T21:37:00.403Z,23.19
2023-06-17T21:40:02.732Z,23.13
2023-06-17T21:43:04.805Z,23.19
2023-06-17T21:46:07.841Z,23.13
2023-06-17T21:49:10.181Z,23.06
2023-06-17T21:52:12.458Z,23.00
2023-06-17T21:55:14.619Z,23.00
2023-06-17T21:58:16.965Z,23.00
2023-06-17T22:01:19.142Z,22.94
2023-06-17T22:04:21.484Z,22.94
2023-06-17T22:07:23.610Z,22.88
2023-06-17T22:10:25.780Z,22.94
2023-06-17T22:13:27.866Z,22.88
2023-06-17T22:16:29.932Z,22.81
2023-06-17T22:19:32.049Z,22.75
2023-06-17T22:22:34.138Z,22.81
2023-06-17T22:25:36.332Z,22.75
2023-06-17T22:28:38.686Z,22.75
2023-06-17T22:31:40.914Z,22.69
2023-06-17T22:34:42.994Z,22.63
2023-06-17T22:37:45.120Z,22.69
2023-06-17T22:40:47.311Z,22.56
2023-06-17T22:43:49.925Z,22.63
2023-06-17T22:46:52.117Z,22.56
2023-06-17T22:49:54.460Z,22.56
2023-06-17T22:52:56.746Z,22.56
2023-06-17T22:55:58.879Z,22.56
2023-06-17T22:59:00.985Z,22.56
2023-06-17T23:02:03.122Z,22.50
2023-06-17T23:05:05.920Z,22.56
2023-06-17T23:08:08.019Z,22.50
2023-06-17T23:11:10.073Z,22.50
2023-06-17T23:14:12.193Z,22.56
2023-06-17T23:17:14.331Z,22.50
2023-06-17T23:20:16.403Z,22.44
2023-06-17T23:23:18.501Z,22.44
2023-06-17T23:26:20.658Z,22.44
2023-06-17T23:29:23.509Z,22.44
2023-06-17T23:32:26.077Z,22.44
2023-06-17T23:35:28.218Z,22.38
2023-06-17T23:38:33.287Z,22.38
2023-06-17T23:41:35.569Z,22.38
2023-06-17T23:44:37.916Z,22.38
2023-06-17T23:47:40.075Z,22.56
2023-06-17T23:50:42.309Z,22.50
2023-06-17T23:53:44.472Z,22.44
2023-06-17T23:56:46.560Z,22.31
2023-06-17T23:59:48.701Z,22.31
